Terminal Aerodrome Forecast
Issued by NWS

Home | Current Version | Previous Version | Text Only | Print | Product List | Glossary On
Versions: 1 2 3 4 5 6 7 8 9 10 11 12 13 14 15 16 17 18 19 20 21
000
FTUS41 KBTV 212101 AAA
TAFMPV
TAF AMD
KMPV 212101Z 2121/2218 32011G18KT P6SM VCSH BKN070
      TEMPO 2121/2122 5SM -SHRA BR OVC005
     FM212200 30009KT P6SM VCSH OVC040
     FM220000 32012KT P6SM BKN090
     FM220300 32011G17KT P6SM SCT200
     FM220700 34007KT P6SM SCT200=

USA.gov is the U.S. government's official web portal to all federal, state and local government web resources and services.